Погода Калундрана 2 недели

Квинсденд, Австралия

23 июля-05 августа
  • 23июля
    Сегодня
    +12°
    +20°
    Ясно и безоблачно
    ВремяПогодаТемператураВлажностьДавлениеВетер, м/сВероятность осадков
    01:00Ясно и безоблачно+11°C88 %769 мм3.3 м/с5 %
    04:00Ясно и безоблачно+10°C85 %769 мм3.6 м/с4 %
    07:00Ясно и безоблачно+10°C86 %770 мм3.6 м/с8 %
    10:00Ясно и безоблачно+18°C56 %771 мм3.6 м/с8 %
    13:00Ясно и безоблачно+20°C47 %769 мм3.9 м/с9 %
    16:00Ясно и безоблачно+19°C62 %768 мм3.8 м/с15 %
    19:00Ясно и безоблачно+15°C81 %769 мм3.0 м/с24 %
    22:00Ясно и безоблачно+14°C90 %769 мм1.9 м/с14 %
  • 24июля
    Среда
    +13°
    +21°
    Практически безоблачно
    ВремяПогодаТемператураВлажностьДавлениеВетер, м/сВероятность осадков
    01:00Небольшая облачность+13°C95 %769 мм2.8 м/с24 %
    04:00Практически безоблачно+12°C95 %768 мм3.5 м/с17 %
    07:00Небольшая облачность+12°C94 %769 мм3.6 м/с14 %
    10:00Практически безоблачно+19°C68 %769 мм2.9 м/с9 %
    13:00Практически безоблачно+21°C60 %767 мм3.8 м/с17 %
    16:00Практически безоблачно+20°C61 %767 мм2.7 м/с12 %
    19:00Небольшая облачность+17°C70 %767 мм2.9 м/с11 %
    22:00Небольшая облачность+17°C80 %768 мм1.8 м/с22 %
  • 25июля
    Четверг
    +13°
    +22°
    Облачно с прояснениями
    ВремяПогодаТемператураВлажностьДавлениеВетер, м/сВероятность осадков
    01:00Небольшая облачность+15°C90 %768 мм0.4 м/с46 %
    04:00Облачно с прояснениями, ливень+14°C94 %767 мм2.3 м/с57 %
    07:00Облачно с прояснениями+15°C93 %768 мм2.0 м/с41 %
    10:00Небольшая облачность+19°C83 %768 мм1.4 м/с44 %
    13:00Облачно с прояснениями+22°C47 %766 мм4.2 м/с42 %
    16:00Практически безоблачно+21°C64 %766 мм4.5 м/с19 %
    19:00Практически безоблачно+18°C75 %767 мм3.1 м/с15 %
    22:00Практически безоблачно+16°C86 %768 мм1.8 м/с25 %
  • 26июля
    Пятница
    +12°
    +22°
    Небольшая облачность
    ВремяПогодаТемператураВлажностьДавлениеВетер, м/сВероятность осадков
    01:00Практически безоблачно+15°C88 %767 мм1.4 м/с31 %
    04:00Небольшая облачность+14°C92 %767 мм2.2 м/с36 %
    07:00Ясно и безоблачно+16°C83 %768 мм1.2 м/с29 %
    10:00Практически безоблачно+21°C61 %769 мм1.9 м/с32 %
    13:00Небольшая облачность+22°C60 %767 мм3.7 м/с23 %
    16:00Ясно и безоблачно+21°C66 %766 мм4.0 м/с22 %
    19:00Практически безоблачно+18°C77 %767 мм2.3 м/с20 %
    22:00Ясно и безоблачно+16°C85 %768 мм2.9 м/с27 %
  • 27июля
    Суббота
    +13°
    +23°
    Небольшая облачность
    ВремяПогодаТемператураВлажностьДавлениеВетер, м/сВероятность осадков
    01:00Ясно и безоблачно+15°C90 %767 мм2.0 м/с19 %
    04:00Ясно и безоблачно+14°C92 %767 мм1.6 м/с9 %
    07:00Практически безоблачно+13°C95 %768 мм1.7 м/с8 %
    10:00Ясно и безоблачно+21°C68 %768 мм0.6 м/с6 %
    13:00Небольшая облачность+22°C67 %766 мм3.7 м/с16 %
    16:00Практически безоблачно+21°C72 %765 мм3.8 м/с23 %
    19:00Ясно и безоблачно+18°C86 %766 мм3.5 м/с23 %
    22:00Ясно и безоблачно+17°C91 %766 мм3.5 м/с35 %
Мы используем cookies
Соглашаюсь